sensor_id;sensor_type;location;lat;lon;timestamp;P1;durP1;ratioP1;P2;durP2;ratioP2
14276;SDS011;7222;57.346;12.150;2022-08-14T00:01:07;3.97;;;3.67;;
14276;SDS011;7222;57.346;12.150;2022-08-14T00:03:34;4.47;;;4.00;;
14276;SDS011;7222;57.346;12.150;2022-08-14T00:06:03;4.60;;;4.20;;
14276;SDS011;7222;57.346;12.150;2022-08-14T00:08:30;4.47;;;4.17;;
14276;SDS011;7222;57.346;12.150;2022-08-14T00:10:57;4.33;;;3.93;;
14276;SDS011;7222;57.346;12.150;2022-08-14T00:13:26;4.33;;;3.97;;
14276;SDS011;7222;57.346;12.150;2022-08-14T00:15:56;4.47;;;4.07;;
14276;SDS011;7222;57.346;12.150;2022-08-14T00:18:25;4.50;;;4.10;;
14276;SDS011;7222;57.346;12.150;2022-08-14T00:20:53;4.27;;;3.87;;
14276;SDS011;7222;57.346;12.150;2022-08-14T00:23:21;6.67;;;3.87;;
14276;SDS011;7222;57.346;12.150;2022-08-14T00:25:49;4.40;;;4.10;;
14276;SDS011;7222;57.346;12.150;2022-08-14T00:28:18;4.37;;;4.07;;
14276;SDS011;7222;57.346;12.150;2022-08-14T00:30:50;4.30;;;3.90;;
14276;SDS011;7222;57.346;12.150;2022-08-14T00:33:20;4.43;;;4.10;;
14276;SDS011;7222;57.346;12.150;2022-08-14T00:35:47;4.33;;;3.93;;
14276;SDS011;7222;57.346;12.150;2022-08-14T00:38:14;4.67;;;4.27;;
14276;SDS011;7222;57.346;12.150;2022-08-14T00:40:41;4.50;;;4.20;;
14276;SDS011;7222;57.346;12.150;2022-08-14T00:43:09;4.30;;;4.00;;
14276;SDS011;7222;57.346;12.150;2022-08-14T00:45:36;4.50;;;4.10;;
14276;SDS011;7222;57.346;12.150;2022-08-14T00:48:03;4.50;;;4.10;;
14276;SDS011;7222;57.346;12.150;2022-08-14T00:50:32;4.17;;;3.60;;
14276;SDS011;7222;57.346;12.150;2022-08-14T00:52:59;4.77;;;4.30;;
14276;SDS011;7222;57.346;12.150;2022-08-14T00:55:26;5.13;;;4.30;;
14276;SDS011;7222;57.346;12.150;2022-08-14T00:57:55;4.70;;;4.30;;
14276;SDS011;7222;57.346;12.150;2022-08-14T01:00:40;4.10;;;3.70;;
14276;SDS011;7222;57.346;12.150;2022-08-14T01:03:07;4.17;;;3.87;;
14276;SDS011;7222;57.346;12.150;2022-08-14T01:05:36;4.13;;;3.73;;
14276;SDS011;7222;57.346;12.150;2022-08-14T01:08:03;3.93;;;3.63;;
14276;SDS011;7222;57.346;12.150;2022-08-14T01:10:31;4.13;;;3.80;;
14276;SDS011;7222;57.346;12.150;2022-08-14T01:13:17;4.47;;;4.17;;
14276;SDS011;7222;57.346;12.150;2022-08-14T01:15:47;4.30;;;4.00;;
14276;SDS011;7222;57.346;12.150;2022-08-14T01:18:16;4.10;;;3.70;;
14276;SDS011;7222;57.346;12.150;2022-08-14T01:21:03;4.23;;;3.77;;
14276;SDS011;7222;57.346;12.150;2022-08-14T01:23:35;4.13;;;3.73;;
14276;SDS011;7222;57.346;12.150;2022-08-14T01:26:04;4.53;;;4.20;;
14276;SDS011;7222;57.346;12.150;2022-08-14T01:28:33;4.53;;;4.23;;
14276;SDS011;7222;57.346;12.150;2022-08-14T01:31:02;4.40;;;4.03;;
14276;SDS011;7222;57.346;12.150;2022-08-14T01:33:33;4.23;;;3.90;;
14276;SDS011;7222;57.346;12.150;2022-08-14T01:36:04;4.37;;;3.97;;
14276;SDS011;7222;57.346;12.150;2022-08-14T01:38:37;4.10;;;3.80;;
14276;SDS011;7222;57.346;12.150;2022-08-14T01:41:07;5.03;;;3.70;;
14276;SDS011;7222;57.346;12.150;2022-08-14T01:43:41;4.27;;;4.07;;
14276;SDS011;7222;57.346;12.150;2022-08-14T01:46:10;4.10;;;3.80;;
14276;SDS011;7222;57.346;12.150;2022-08-14T01:48:37;4.90;;;3.57;;
14276;SDS011;7222;57.346;12.150;2022-08-14T01:51:08;4.23;;;3.83;;
14276;SDS011;7222;57.346;12.150;2022-08-14T01:53:37;4.23;;;3.93;;
14276;SDS011;7222;57.346;12.150;2022-08-14T01:56:06;4.33;;;3.90;;
14276;SDS011;7222;57.346;12.150;2022-08-14T01:58:33;4.53;;;4.13;;
14276;SDS011;7222;57.346;12.150;2022-08-14T02:01:00;4.10;;;3.80;;
14276;SDS011;7222;57.346;12.150;2022-08-14T02:03:29;4.57;;;4.13;;
14276;SDS011;7222;57.346;12.150;2022-08-14T02:05:59;4.33;;;3.93;;
14276;SDS011;7222;57.346;12.150;2022-08-14T02:08:26;4.40;;;4.10;;
14276;SDS011;7222;57.346;12.150;2022-08-14T02:10:56;4.00;;;3.70;;
14276;SDS011;7222;57.346;12.150;2022-08-14T02:13:43;4.20;;;3.83;;
14276;SDS011;7222;57.346;12.150;2022-08-14T02:16:11;4.70;;;4.30;;
14276;SDS011;7222;57.346;12.150;2022-08-14T02:18:40;4.43;;;4.10;;
14276;SDS011;7222;57.346;12.150;2022-08-14T02:21:08;4.73;;;3.90;;
14276;SDS011;7222;57.346;12.150;2022-08-14T02:23:36;4.00;;;3.70;;
14276;SDS011;7222;57.346;12.150;2022-08-14T02:26:14;4.53;;;4.13;;
14276;SDS011;7222;57.346;12.150;2022-08-14T02:28:46;4.60;;;4.20;;
14276;SDS011;7222;57.346;12.150;2022-08-14T02:31:16;4.80;;;4.30;;
14276;SDS011;7222;57.346;12.150;2022-08-14T02:33:44;4.10;;;3.80;;
14276;SDS011;7222;57.346;12.150;2022-08-14T02:36:11;4.60;;;4.20;;
14276;SDS011;7222;57.346;12.150;2022-08-14T02:38:40;4.40;;;4.10;;
14276;SDS011;7222;57.346;12.150;2022-08-14T02:41:09;5.13;;;4.73;;
14276;SDS011;7222;57.346;12.150;2022-08-14T02:43:38;4.30;;;4.00;;
14276;SDS011;7222;57.346;12.150;2022-08-14T02:46:06;4.00;;;3.70;;
14276;SDS011;7222;57.346;12.150;2022-08-14T02:48:35;4.13;;;3.77;;
14276;SDS011;7222;57.346;12.150;2022-08-14T02:51:05;4.40;;;4.10;;
14276;SDS011;7222;57.346;12.150;2022-08-14T02:53:36;4.50;;;4.10;;
14276;SDS011;7222;57.346;12.150;2022-08-14T02:56:05;4.97;;;4.57;;
14276;SDS011;7222;57.346;12.150;2022-08-14T02:58:37;4.40;;;4.10;;
14276;SDS011;7222;57.346;12.150;2022-08-14T03:01:06;4.80;;;4.40;;
14276;SDS011;7222;57.346;12.150;2022-08-14T03:03:33;5.13;;;4.73;;
14276;SDS011;7222;57.346;12.150;2022-08-14T03:06:02;4.97;;;4.57;;
14276;SDS011;7222;57.346;12.150;2022-08-14T03:08:29;4.83;;;4.43;;
14276;SDS011;7222;57.346;12.150;2022-08-14T03:10:57;5.07;;;4.67;;
14276;SDS011;7222;57.346;12.150;2022-08-14T03:13:25;4.80;;;4.20;;
14276;SDS011;7222;57.346;12.150;2022-08-14T03:15:53;4.37;;;4.03;;
14276;SDS011;7222;57.346;12.150;2022-08-14T03:18:20;4.37;;;4.00;;
14276;SDS011;7222;57.346;12.150;2022-08-14T03:20:48;4.57;;;4.00;;
14276;SDS011;7222;57.346;12.150;2022-08-14T03:23:15;4.43;;;4.03;;
14276;SDS011;7222;57.346;12.150;2022-08-14T03:25:42;4.10;;;3.70;;
14276;SDS011;7222;57.346;12.150;2022-08-14T03:28:10;3.80;;;3.50;;
14276;SDS011;7222;57.346;12.150;2022-08-14T03:30:38;4.47;;;4.07;;
14276;SDS011;7222;57.346;12.150;2022-08-14T03:33:08;4.30;;;4.00;;
14276;SDS011;7222;57.346;12.150;2022-08-14T03:35:36;4.70;;;4.40;;
14276;SDS011;7222;57.346;12.150;2022-08-14T03:38:05;4.20;;;3.90;;
14276;SDS011;7222;57.346;12.150;2022-08-14T03:40:34;4.63;;;4.27;;
14276;SDS011;7222;57.346;12.150;2022-08-14T03:43:03;4.87;;;4.40;;
14276;SDS011;7222;57.346;12.150;2022-08-14T03:45:31;4.73;;;4.00;;
14276;SDS011;7222;57.346;12.150;2022-08-14T03:47:59;4.77;;;4.37;;
14276;SDS011;7222;57.346;12.150;2022-08-14T03:50:29;4.73;;;4.40;;
14276;SDS011;7222;57.346;12.150;2022-08-14T03:52:58;4.73;;;4.33;;
14276;SDS011;7222;57.346;12.150;2022-08-14T03:55:26;4.00;;;3.70;;
14276;SDS011;7222;57.346;12.150;2022-08-14T03:57:53;4.50;;;4.10;;
14276;SDS011;7222;57.346;12.150;2022-08-14T04:00:21;4.27;;;3.83;;
14276;SDS011;7222;57.346;12.150;2022-08-14T04:02:48;4.70;;;4.30;;
14276;SDS011;7222;57.346;12.150;2022-08-14T04:05:15;4.43;;;4.13;;
14276;SDS011;7222;57.346;12.150;2022-08-14T04:07:43;4.00;;;3.70;;
14276;SDS011;7222;57.346;12.150;2022-08-14T04:10:11;4.20;;;3.90;;
14276;SDS011;7222;57.346;12.150;2022-08-14T04:12:38;4.43;;;4.10;;
14276;SDS011;7222;57.346;12.150;2022-08-14T04:15:05;4.53;;;4.23;;
14276;SDS011;7222;57.346;12.150;2022-08-14T04:17:33;5.33;;;4.87;;
14276;SDS011;7222;57.346;12.150;2022-08-14T04:20:00;5.20;;;4.80;;
14276;SDS011;7222;57.346;12.150;2022-08-14T04:22:31;3.90;;;3.60;;
14276;SDS011;7222;57.346;12.150;2022-08-14T04:25:00;5.70;;;4.30;;
14276;SDS011;7222;57.346;12.150;2022-08-14T04:27:28;4.83;;;4.17;;
14276;SDS011;7222;57.346;12.150;2022-08-14T04:29:55;4.40;;;4.10;;
14276;SDS011;7222;57.346;12.150;2022-08-14T04:32:22;4.50;;;4.10;;
14276;SDS011;7222;57.346;12.150;2022-08-14T04:34:51;5.03;;;4.63;;
14276;SDS011;7222;57.346;12.150;2022-08-14T04:37:19;4.53;;;4.23;;
14276;SDS011;7222;57.346;12.150;2022-08-14T04:40:07;4.43;;;4.03;;
14276;SDS011;7222;57.346;12.150;2022-08-14T04:42:52;4.60;;;4.30;;
14276;SDS011;7222;57.346;12.150;2022-08-14T04:45:37;4.63;;;4.23;;
14276;SDS011;7222;57.346;12.150;2022-08-14T04:48:06;6.10;;;5.50;;
14276;SDS011;7222;57.346;12.150;2022-08-14T04:50:40;5.93;;;5.13;;
14276;SDS011;7222;57.346;12.150;2022-08-14T04:53:09;6.07;;;5.57;;
14276;SDS011;7222;57.346;12.150;2022-08-14T04:55:39;5.33;;;4.93;;
14276;SDS011;7222;57.346;12.150;2022-08-14T04:58:07;7.13;;;6.50;;
14276;SDS011;7222;57.346;12.150;2022-08-14T05:00:34;7.33;;;6.63;;
14276;SDS011;7222;57.346;12.150;2022-08-14T05:03:04;8.00;;;7.20;;
14276;SDS011;7222;57.346;12.150;2022-08-14T05:05:31;8.03;;;7.23;;
14276;SDS011;7222;57.346;12.150;2022-08-14T05:08:05;7.80;;;6.93;;
14276;SDS011;7222;57.346;12.150;2022-08-14T05:10:36;7.87;;;7.10;;
14276;SDS011;7222;57.346;12.150;2022-08-14T05:13:07;7.37;;;6.47;;
14276;SDS011;7222;57.346;12.150;2022-08-14T05:15:35;7.40;;;6.73;;
14276;SDS011;7222;57.346;12.150;2022-08-14T05:18:06;7.40;;;6.77;;
14276;SDS011;7222;57.346;12.150;2022-08-14T05:20:37;7.20;;;6.60;;
14276;SDS011;7222;57.346;12.150;2022-08-14T05:23:07;7.73;;;7.03;;
14276;SDS011;7222;57.346;12.150;2022-08-14T05:25:34;7.00;;;6.40;;
14276;SDS011;7222;57.346;12.150;2022-08-14T05:28:07;7.30;;;6.63;;
14276;SDS011;7222;57.346;12.150;2022-08-14T05:30:36;8.30;;;7.60;;
14276;SDS011;7222;57.346;12.150;2022-08-14T05:33:03;7.77;;;7.17;;
14276;SDS011;7222;57.346;12.150;2022-08-14T05:35:30;7.30;;;6.70;;
14276;SDS011;7222;57.346;12.150;2022-08-14T05:37:57;8.33;;;7.43;;
14276;SDS011;7222;57.346;12.150;2022-08-14T05:40:25;6.83;;;6.33;;
14276;SDS011;7222;57.346;12.150;2022-08-14T05:42:52;7.57;;;6.73;;
14276;SDS011;7222;57.346;12.150;2022-08-14T05:45:20;7.20;;;6.60;;
14276;SDS011;7222;57.346;12.150;2022-08-14T05:47:48;6.20;;;5.70;;
14276;SDS011;7222;57.346;12.150;2022-08-14T05:50:15;7.70;;;6.13;;
14276;SDS011;7222;57.346;12.150;2022-08-14T05:52:42;6.27;;;5.73;;
14276;SDS011;7222;57.346;12.150;2022-08-14T05:55:09;6.03;;;5.53;;
14276;SDS011;7222;57.346;12.150;2022-08-14T05:57:50;6.10;;;5.60;;
14276;SDS011;7222;57.346;12.150;2022-08-14T06:00:19;5.87;;;5.37;;
14276;SDS011;7222;57.346;12.150;2022-08-14T06:02:48;5.30;;;5.00;;
14276;SDS011;7222;57.346;12.150;2022-08-14T06:05:16;5.80;;;5.30;;
14276;SDS011;7222;57.346;12.150;2022-08-14T06:07:43;5.77;;;5.23;;
14276;SDS011;7222;57.346;12.150;2022-08-14T06:10:10;5.50;;;5.00;;
14276;SDS011;7222;57.346;12.150;2022-08-14T06:12:37;5.30;;;4.80;;
14276;SDS011;7222;57.346;12.150;2022-08-14T06:15:05;5.67;;;5.03;;
14276;SDS011;7222;57.346;12.150;2022-08-14T06:17:42;5.77;;;5.13;;
14276;SDS011;7222;57.346;12.150;2022-08-14T06:20:11;5.07;;;4.57;;
14276;SDS011;7222;57.346;12.150;2022-08-14T06:22:38;5.63;;;4.87;;
14276;SDS011;7222;57.346;12.150;2022-08-14T06:25:07;5.27;;;4.87;;
14276;SDS011;7222;57.346;12.150;2022-08-14T06:27:36;5.37;;;4.77;;
14276;SDS011;7222;57.346;12.150;2022-08-14T06:30:04;5.00;;;4.60;;
14276;SDS011;7222;57.346;12.150;2022-08-14T06:32:33;4.87;;;4.40;;
14276;SDS011;7222;57.346;12.150;2022-08-14T06:35:02;4.87;;;4.47;;
14276;SDS011;7222;57.346;12.150;2022-08-14T06:37:37;5.10;;;4.10;;
14276;SDS011;7222;57.346;12.150;2022-08-14T06:40:09;5.07;;;4.57;;
14276;SDS011;7222;57.346;12.150;2022-08-14T06:42:37;5.10;;;4.70;;
14276;SDS011;7222;57.346;12.150;2022-08-14T06:45:05;4.80;;;4.40;;
14276;SDS011;7222;57.346;12.150;2022-08-14T06:47:34;4.47;;;4.07;;
14276;SDS011;7222;57.346;12.150;2022-08-14T06:50:03;6.80;;;4.90;;
14276;SDS011;7222;57.346;12.150;2022-08-14T06:52:31;5.23;;;4.50;;
14276;SDS011;7222;57.346;12.150;2022-08-14T06:54:58;7.23;;;4.30;;
14276;SDS011;7222;57.346;12.150;2022-08-14T06:57:25;5.77;;;4.50;;
14276;SDS011;7222;57.346;12.150;2022-08-14T06:59:59;5.60;;;4.30;;
14276;SDS011;7222;57.346;12.150;2022-08-14T07:02:27;4.33;;;3.90;;
14276;SDS011;7222;57.346;12.150;2022-08-14T07:05:24;4.57;;;3.73;;
14276;SDS011;7222;57.346;12.150;2022-08-14T07:08:11;4.20;;;3.90;;
14276;SDS011;7222;57.346;12.150;2022-08-14T07:10:39;6.00;;;4.10;;
14276;SDS011;7222;57.346;12.150;2022-08-14T07:13:08;4.20;;;3.87;;
14276;SDS011;7222;57.346;12.150;2022-08-14T07:15:35;3.73;;;3.43;;
14276;SDS011;7222;57.346;12.150;2022-08-14T07:18:03;4.17;;;3.87;;
14276;SDS011;7222;57.346;12.150;2022-08-14T07:20:33;4.27;;;3.97;;
14276;SDS011;7222;57.346;12.150;2022-08-14T07:23:01;4.53;;;3.57;;
14276;SDS011;7222;57.346;12.150;2022-08-14T07:25:30;4.23;;;3.87;;
14276;SDS011;7222;57.346;12.150;2022-08-14T07:27:58;3.60;;;3.40;;
14276;SDS011;7222;57.346;12.150;2022-08-14T07:30:25;4.30;;;3.90;;
14276;SDS011;7222;57.346;12.150;2022-08-14T07:32:52;4.53;;;4.13;;
14276;SDS011;7222;57.346;12.150;2022-08-14T07:35:20;4.17;;;3.30;;
14276;SDS011;7222;57.346;12.150;2022-08-14T07:37:48;4.17;;;3.77;;
14276;SDS011;7222;57.346;12.150;2022-08-14T07:40:15;5.23;;;3.93;;
14276;SDS011;7222;57.346;12.150;2022-08-14T07:42:42;3.60;;;3.30;;
14276;SDS011;7222;57.346;12.150;2022-08-14T07:45:09;4.20;;;3.80;;
14276;SDS011;7222;57.346;12.150;2022-08-14T07:47:38;3.40;;;3.10;;
14276;SDS011;7222;57.346;12.150;2022-08-14T07:50:10;4.63;;;3.60;;
14276;SDS011;7222;57.346;12.150;2022-08-14T07:52:39;3.87;;;3.63;;
14276;SDS011;7222;57.346;12.150;2022-08-14T07:55:08;4.60;;;3.87;;
14276;SDS011;7222;57.346;12.150;2022-08-14T07:57:36;3.93;;;3.60;;
14276;SDS011;7222;57.346;12.150;2022-08-14T08:00:05;3.57;;;3.23;;
14276;SDS011;7222;57.346;12.150;2022-08-14T08:02:34;3.73;;;3.43;;
14276;SDS011;7222;57.346;12.150;2022-08-14T08:05:04;3.20;;;3.00;;
14276;SDS011;7222;57.346;12.150;2022-08-14T08:07:32;3.67;;;3.47;;
14276;SDS011;7222;57.346;12.150;2022-08-14T08:10:02;4.20;;;3.17;;
14276;SDS011;7222;57.346;12.150;2022-08-14T08:12:52;3.37;;;3.07;;
14276;SDS011;7222;57.346;12.150;2022-08-14T08:15:20;3.23;;;2.93;;
14276;SDS011;7222;57.346;12.150;2022-08-14T08:17:48;3.03;;;2.80;;
14276;SDS011;7222;57.346;12.150;2022-08-14T08:20:16;3.03;;;2.83;;
14276;SDS011;7222;57.346;12.150;2022-08-14T08:22:45;2.80;;;2.60;;
14276;SDS011;7222;57.346;12.150;2022-08-14T08:25:12;3.07;;;2.80;;
14276;SDS011;7222;57.346;12.150;2022-08-14T08:27:40;2.97;;;2.67;;
14276;SDS011;7222;57.346;12.150;2022-08-14T08:30:10;2.73;;;2.53;;
14276;SDS011;7222;57.346;12.150;2022-08-14T08:32:38;3.33;;;3.13;;
14276;SDS011;7222;57.346;12.150;2022-08-14T08:35:08;3.23;;;2.37;;
14276;SDS011;7222;57.346;12.150;2022-08-14T08:37:41;2.50;;;2.30;;
14276;SDS011;7222;57.346;12.150;2022-08-14T08:40:09;2.80;;;2.60;;
14276;SDS011;7222;57.346;12.150;2022-08-14T08:42:37;2.17;;;2.07;;
14276;SDS011;7222;57.346;12.150;2022-08-14T08:45:04;2.87;;;2.67;;
14276;SDS011;7222;57.346;12.150;2022-08-14T08:47:40;3.10;;;2.83;;
14276;SDS011;7222;57.346;12.150;2022-08-14T08:50:17;3.17;;;2.97;;
14276;SDS011;7222;57.346;12.150;2022-08-14T08:52:47;3.73;;;3.47;;
14276;SDS011;7222;57.346;12.150;2022-08-14T08:55:28;3.10;;;2.90;;
14276;SDS011;7222;57.346;12.150;2022-08-14T08:57:58;3.37;;;3.07;;
14276;SDS011;7222;57.346;12.150;2022-08-14T09:00:27;3.60;;;3.20;;
14276;SDS011;7222;57.346;12.150;2022-08-14T09:03:00;3.43;;;3.13;;
14276;SDS011;7222;57.346;12.150;2022-08-14T09:05:29;4.37;;;3.80;;
14276;SDS011;7222;57.346;12.150;2022-08-14T09:08:14;4.10;;;3.40;;
14276;SDS011;7222;57.346;12.150;2022-08-14T09:10:42;3.47;;;3.27;;
14276;SDS011;7222;57.346;12.150;2022-08-14T09:13:10;3.73;;;3.43;;
14276;SDS011;7222;57.346;12.150;2022-08-14T09:15:38;3.65;;;3.42;;
14276;SDS011;7222;57.346;12.150;2022-08-14T09:18:08;3.95;;;3.40;;
14276;SDS011;7222;57.346;12.150;2022-08-14T09:20:36;3.42;;;3.22;;
14276;SDS011;7222;57.346;12.150;2022-08-14T09:23:04;3.47;;;3.17;;
14276;SDS011;7222;57.346;12.150;2022-08-14T09:25:32;4.03;;;3.70;;
14276;SDS011;7222;57.346;12.150;2022-08-14T09:27:59;4.25;;;3.88;;
14276;SDS011;7222;57.346;12.150;2022-08-14T09:30:27;4.38;;;4.05;;
14276;SDS011;7222;57.346;12.150;2022-08-14T09:35:51;4.30;;;3.40;;
14276;SDS011;7222;57.346;12.150;2022-08-14T09:38:30;3.70;;;3.40;;
14276;SDS011;7222;57.346;12.150;2022-08-14T09:41:07;3.55;;;3.25;;
14276;SDS011;7222;57.346;12.150;2022-08-14T09:43:45;4.63;;;3.55;;
14276;SDS011;7222;57.346;12.150;2022-08-14T09:46:24;3.67;;;3.38;;
14276;SDS011;7222;57.346;12.150;2022-08-14T09:48:58;3.42;;;3.13;;
14276;SDS011;7222;57.346;12.150;2022-08-14T09:51:25;5.63;;;3.75;;
14276;SDS011;7222;57.346;12.150;2022-08-14T09:53:59;3.83;;;3.50;;
14276;SDS011;7222;57.346;12.150;2022-08-14T09:56:41;3.58;;;3.22;;
14276;SDS011;7222;57.346;12.150;2022-08-14T09:59:10;3.60;;;3.30;;
14276;SDS011;7222;57.346;12.150;2022-08-14T10:01:38;3.78;;;3.47;;
14276;SDS011;7222;57.346;12.150;2022-08-14T10:04:16;5.60;;;4.20;;
14276;SDS011;7222;57.346;12.150;2022-08-14T10:06:45;3.42;;;3.20;;
14276;SDS011;7222;57.346;12.150;2022-08-14T10:09:12;4.35;;;3.88;;
14276;SDS011;7222;57.346;12.150;2022-08-14T10:11:40;4.05;;;3.67;;
14276;SDS011;7222;57.346;12.150;2022-08-14T10:14:19;3.75;;;3.55;;
14276;SDS011;7222;57.346;12.150;2022-08-14T10:16:49;3.90;;;3.60;;
14276;SDS011;7222;57.346;12.150;2022-08-14T10:19:20;3.60;;;3.25;;
14276;SDS011;7222;57.346;12.150;2022-08-14T10:21:56;4.25;;;3.83;;
14276;SDS011;7222;57.346;12.150;2022-08-14T10:24:25;3.70;;;3.50;;
14276;SDS011;7222;57.346;12.150;2022-08-14T10:26:55;4.40;;;4.00;;
14276;SDS011;7222;57.346;12.150;2022-08-14T10:29:31;4.00;;;3.70;;
14276;SDS011;7222;57.346;12.150;2022-08-14T10:32:01;4.70;;;3.55;;
14276;SDS011;7222;57.346;12.150;2022-08-14T10:34:31;3.80;;;3.50;;
14276;SDS011;7222;57.346;12.150;2022-08-14T10:37:03;5.97;;;4.47;;
14276;SDS011;7222;57.346;12.150;2022-08-14T10:39:33;4.05;;;3.75;;
14276;SDS011;7222;57.346;12.150;2022-08-14T10:42:02;3.50;;;3.20;;
14276;SDS011;7222;57.346;12.150;2022-08-14T10:44:32;7.60;;;3.53;;
14276;SDS011;7222;57.346;12.150;2022-08-14T10:47:03;4.10;;;3.65;;
14276;SDS011;7222;57.346;12.150;2022-08-14T10:49:33;4.65;;;4.00;;
14276;SDS011;7222;57.346;12.150;2022-08-14T10:52:02;4.10;;;3.80;;
14276;SDS011;7222;57.346;12.150;2022-08-14T10:54:32;3.90;;;3.33;;
14276;SDS011;7222;57.346;12.150;2022-08-14T10:57:14;3.20;;;3.00;;
14276;SDS011;7222;57.346;12.150;2022-08-14T10:59:45;3.10;;;2.90;;
14276;SDS011;7222;57.346;12.150;2022-08-14T11:02:18;2.78;;;2.60;;
14276;SDS011;7222;57.346;12.150;2022-08-14T11:05:00;2.70;;;2.50;;
14276;SDS011;7222;57.346;12.150;2022-08-14T11:07:32;2.70;;;2.50;;
14276;SDS011;7222;57.346;12.150;2022-08-14T11:10:04;2.72;;;2.50;;
14276;SDS011;7222;57.346;12.150;2022-08-14T11:12:41;2.42;;;2.33;;
14276;SDS011;7222;57.346;12.150;2022-08-14T11:15:12;2.58;;;2.38;;
14276;SDS011;7222;57.346;12.150;2022-08-14T11:17:40;2.60;;;2.40;;
14276;SDS011;7222;57.346;12.150;2022-08-14T11:20:12;2.47;;;2.38;;
14276;SDS011;7222;57.346;12.150;2022-08-14T11:22:40;4.03;;;2.42;;
14276;SDS011;7222;57.346;12.150;2022-08-14T11:25:08;2.60;;;2.40;;
14276;SDS011;7222;57.346;12.150;2022-08-14T11:27:38;2.75;;;2.55;;
14276;SDS011;7222;57.346;12.150;2022-08-14T11:30:06;2.50;;;2.30;;
14276;SDS011;7222;57.346;12.150;2022-08-14T11:32:35;2.55;;;2.35;;
14276;SDS011;7222;57.346;12.150;2022-08-14T11:35:09;2.72;;;2.58;;
14276;SDS011;7222;57.346;12.150;2022-08-14T11:37:50;2.30;;;2.05;;
14276;SDS011;7222;57.346;12.150;2022-08-14T11:40:18;2.60;;;2.38;;
14276;SDS011;7222;57.346;12.150;2022-08-14T11:42:46;3.50;;;2.60;;
14276;SDS011;7222;57.346;12.150;2022-08-14T11:45:13;2.53;;;2.30;;
14276;SDS011;7222;57.346;12.150;2022-08-14T11:47:41;3.08;;;2.80;;
14276;SDS011;7222;57.346;12.150;2022-08-14T11:50:15;3.97;;;3.60;;
14276;SDS011;7222;57.346;12.150;2022-08-14T11:52:43;3.13;;;2.80;;
14276;SDS011;7222;57.346;12.150;2022-08-14T11:55:12;2.83;;;2.60;;
14276;SDS011;7222;57.346;12.150;2022-08-14T11:57:40;3.42;;;3.00;;
14276;SDS011;7222;57.346;12.150;2022-08-14T12:00:09;3.15;;;2.47;;
14276;SDS011;7222;57.346;12.150;2022-08-14T12:02:48;2.78;;;2.58;;
14276;SDS011;7222;57.346;12.150;2022-08-14T12:05:17;3.47;;;2.78;;
14276;SDS011;7222;57.346;12.150;2022-08-14T12:07:55;3.53;;;2.63;;
14276;SDS011;7222;57.346;12.150;2022-08-14T12:10:23;2.67;;;2.47;;
14276;SDS011;7222;57.346;12.150;2022-08-14T12:12:50;2.80;;;2.60;;
14276;SDS011;7222;57.346;12.150;2022-08-14T12:15:27;2.50;;;2.30;;
14276;SDS011;7222;57.346;12.150;2022-08-14T12:17:55;3.67;;;2.80;;
14276;SDS011;7222;57.346;12.150;2022-08-14T12:20:29;3.10;;;2.80;;
14276;SDS011;7222;57.346;12.150;2022-08-14T12:22:57;3.20;;;2.30;;
14276;SDS011;7222;57.346;12.150;2022-08-14T12:25:25;2.88;;;2.63;;
14276;SDS011;7222;57.346;12.150;2022-08-14T12:27:53;4.15;;;2.50;;
14276;SDS011;7222;57.346;12.150;2022-08-14T12:30:26;4.18;;;2.63;;
14276;SDS011;7222;57.346;12.150;2022-08-14T12:32:55;2.80;;;2.60;;
14276;SDS011;7222;57.346;12.150;2022-08-14T12:35:22;2.38;;;2.17;;
14276;SDS011;7222;57.346;12.150;2022-08-14T12:37:50;3.20;;;2.15;;
14276;SDS011;7222;57.346;12.150;2022-08-14T12:40:18;4.57;;;2.60;;
14276;SDS011;7222;57.346;12.150;2022-08-14T12:42:49;6.13;;;2.47;;
14276;SDS011;7222;57.346;12.150;2022-08-14T12:45:27;3.72;;;2.50;;
14276;SDS011;7222;57.346;12.150;2022-08-14T12:47:58;2.83;;;2.35;;
14276;SDS011;7222;57.346;12.150;2022-08-14T12:50:33;4.82;;;2.80;;
14276;SDS011;7222;57.346;12.150;2022-08-14T12:53:03;3.10;;;2.80;;
14276;SDS011;7222;57.346;12.150;2022-08-14T12:55:32;3.10;;;2.90;;
14276;SDS011;7222;57.346;12.150;2022-08-14T12:58:00;3.78;;;2.42;;
14276;SDS011;7222;57.346;12.150;2022-08-14T13:00:30;3.92;;;2.47;;
14276;SDS011;7222;57.346;12.150;2022-08-14T13:02:58;3.53;;;2.50;;
14276;SDS011;7222;57.346;12.150;2022-08-14T13:05:26;3.33;;;2.47;;
14276;SDS011;7222;57.346;12.150;2022-08-14T13:07:56;2.50;;;2.15;;
14276;SDS011;7222;57.346;12.150;2022-08-14T13:10:26;2.10;;;1.90;;
14276;SDS011;7222;57.346;12.150;2022-08-14T13:12:56;2.55;;;2.25;;
14276;SDS011;7222;57.346;12.150;2022-08-14T13:15:25;4.60;;;2.25;;
14276;SDS011;7222;57.346;12.150;2022-08-14T13:17:53;2.58;;;2.20;;
14276;SDS011;7222;57.346;12.150;2022-08-14T13:20:23;3.60;;;2.45;;
14276;SDS011;7222;57.346;12.150;2022-08-14T13:22:52;3.38;;;2.38;;
14276;SDS011;7222;57.346;12.150;2022-08-14T13:25:21;3.25;;;2.30;;
14276;SDS011;7222;57.346;12.150;2022-08-14T13:27:52;2.75;;;2.55;;
14276;SDS011;7222;57.346;12.150;2022-08-14T13:30:21;2.63;;;2.42;;
14276;SDS011;7222;57.346;12.150;2022-08-14T13:32:50;3.20;;;2.33;;
14276;SDS011;7222;57.346;12.150;2022-08-14T13:35:18;2.47;;;2.28;;
14276;SDS011;7222;57.346;12.150;2022-08-14T13:37:46;3.33;;;2.50;;
14276;SDS011;7222;57.346;12.150;2022-08-14T13:40:15;2.70;;;2.50;;
14276;SDS011;7222;57.346;12.150;2022-08-14T13:42:44;2.45;;;2.28;;
14276;SDS011;7222;57.346;12.150;2022-08-14T13:45:15;2.42;;;2.22;;
14276;SDS011;7222;57.346;12.150;2022-08-14T13:47:46;2.30;;;2.20;;
14276;SDS011;7222;57.346;12.150;2022-08-14T13:50:14;2.63;;;2.42;;
14276;SDS011;7222;57.346;12.150;2022-08-14T13:52:45;2.83;;;2.42;;
14276;SDS011;7222;57.346;12.150;2022-08-14T13:55:18;2.63;;;2.42;;
14276;SDS011;7222;57.346;12.150;2022-08-14T13:57:47;2.33;;;2.13;;
14276;SDS011;7222;57.346;12.150;2022-08-14T14:00:17;2.67;;;2.35;;
14276;SDS011;7222;57.346;12.150;2022-08-14T14:02:44;2.65;;;2.40;;
14276;SDS011;7222;57.346;12.150;2022-08-14T14:05:12;2.72;;;2.53;;
14276;SDS011;7222;57.346;12.150;2022-08-14T14:07:43;2.50;;;2.30;;
14276;SDS011;7222;57.346;12.150;2022-08-14T14:10:12;2.33;;;2.15;;
14276;SDS011;7222;57.346;12.150;2022-08-14T14:12:41;2.30;;;2.10;;
14276;SDS011;7222;57.346;12.150;2022-08-14T14:15:09;2.50;;;2.30;;
14276;SDS011;7222;57.346;12.150;2022-08-14T14:17:40;2.63;;;2.35;;
14276;SDS011;7222;57.346;12.150;2022-08-14T14:20:09;2.80;;;2.20;;
14276;SDS011;7222;57.346;12.150;2022-08-14T14:22:39;2.50;;;2.30;;
14276;SDS011;7222;57.346;12.150;2022-08-14T14:25:07;2.40;;;2.20;;
14276;SDS011;7222;57.346;12.150;2022-08-14T14:27:35;2.80;;;2.50;;
14276;SDS011;7222;57.346;12.150;2022-08-14T14:30:06;2.47;;;2.28;;
14276;SDS011;7222;57.346;12.150;2022-08-14T14:32:34;2.88;;;2.50;;
14276;SDS011;7222;57.346;12.150;2022-08-14T14:35:08;3.88;;;2.33;;
14276;SDS011;7222;57.346;12.150;2022-08-14T14:37:38;2.80;;;2.60;;
14276;SDS011;7222;57.346;12.150;2022-08-14T14:40:07;2.10;;;2.00;;
14276;SDS011;7222;57.346;12.150;2022-08-14T14:42:36;3.67;;;2.50;;
14276;SDS011;7222;57.346;12.150;2022-08-14T14:45:11;2.63;;;2.42;;
14276;SDS011;7222;57.346;12.150;2022-08-14T14:47:39;3.30;;;2.55;;
14276;SDS011;7222;57.346;12.150;2022-08-14T14:50:09;2.58;;;2.38;;
14276;SDS011;7222;57.346;12.150;2022-08-14T14:52:37;2.45;;;2.17;;
14276;SDS011;7222;57.346;12.150;2022-08-14T14:55:04;3.90;;;2.70;;
14276;SDS011;7222;57.346;12.150;2022-08-14T14:57:33;2.70;;;2.50;;
14276;SDS011;7222;57.346;12.150;2022-08-14T15:00:00;3.05;;;2.47;;
14276;SDS011;7222;57.346;12.150;2022-08-14T15:02:32;2.35;;;2.20;;
14276;SDS011;7222;57.346;12.150;2022-08-14T15:04:59;2.88;;;2.40;;
14276;SDS011;7222;57.346;12.150;2022-08-14T15:07:28;4.40;;;2.70;;